Time;durP1;ratioP1;P1;durP2;ratioP2;P2;SDS_P1;SDS_P2;PMS_P1;PMS_P2;Temp;Humidity;BMP_temperature;BMP_pressure;BME280_temperature;BME280_humidity;BME280_pressure;Samples;Min_cycle;Max_cycle;Signal;HPM_P1;HPM_P2
2021/10/02 00:35:19;;;;;;;3.43;2.70;;;13.90;98.30;;;;;;5225256;22;20496;-86
2021/10/02 00:37:43;;;;;;;5.70;4.23;;;13.80;98.30;;;;;;5225230;22;20434;-85
2021/10/02 00:44:39;;;;;;;3.90;3.00;;;13.70;98.30;;;;;;5225574;22;20425;-85
2021/10/02 00:46:42;;;;;;;3.80;3.20;;;13.70;98.30;;;;;;5225480;22;20974;-85
2021/10/02 00:48:45;;;;;;;3.80;3.30;;;13.60;98.30;;;;;;5225378;22;20906;-86
2021/10/02 00:50:49;;;;;;;3.33;3.00;;;13.60;98.30;;;;;;5225610;22;20444;-85
2021/10/02 00:52:52;;;;;;;5.30;3.60;;;13.60;98.30;;;;;;5225307;22;20445;-85
2021/10/02 00:54:56;;;;;;;3.67;3.37;;;13.70;98.30;;;;;;5224758;22;20508;-86
2021/10/02 00:56:59;;;;;;;4.13;3.20;;;13.70;98.30;;;;;;5225478;22;20832;-85
2021/10/02 00:59:03;;;;;;;8.17;3.60;;;13.70;98.30;;;;;;5224869;22;20524;-85
2021/10/02 01:01:07;;;;;;;6.07;3.30;;;13.70;98.30;;;;;;5225240;22;20453;-86
2021/10/02 01:03:16;;;;;;;6.00;3.50;;;13.70;98.30;;;;;;5225677;22;20422;-85
2021/10/02 01:05:42;;;;;;;4.10;3.20;;;13.70;98.30;;;;;;5225236;22;20448;-85
2021/10/02 01:07:57;;;;;;;3.30;2.97;;;13.60;98.30;;;;;;5225929;22;20755;-85
2021/10/02 01:10:13;;;;;;;6.07;3.87;;;13.60;98.30;;;;;;5225472;22;20821;-85
2021/10/02 01:12:38;;;;;;;5.47;3.73;;;13.50;98.30;;;;;;5224700;22;20453;-85
2021/10/02 01:14:51;;;;;;;3.50;3.20;;;13.50;98.30;;;;;;5225772;22;20895;-86
2021/10/02 01:17:01;;;;;;;6.97;4.00;;;13.40;98.30;;;;;;5226168;22;20428;-86
2021/10/02 01:19:33;;;;;;;5.20;3.50;;;13.40;98.30;;;;;;5225849;22;20421;-85
2021/10/02 01:21:48;;;;;;;4.30;3.57;;;13.50;98.30;;;;;;5224439;22;20421;-85
2021/10/02 01:24:00;;;;;;;6.40;3.43;;;13.50;98.30;;;;;;5224687;22;20754;-85
2021/10/02 01:26:17;;;;;;;5.77;3.67;;;13.50;98.30;;;;;;5224560;22;20465;-85
2021/10/02 01:28:23;;;;;;;6.47;4.13;;;13.50;98.30;;;;;;5225423;22;20440;-86
2021/10/02 01:30:48;;;;;;;4.67;3.37;;;13.50;98.30;;;;;;5226449;22;20425;-86
2021/10/02 01:33:05;;;;;;;4.57;3.23;;;13.50;98.30;;;;;;5225444;22;20421;-86
2021/10/02 01:35:16;;;;;;;5.47;3.90;;;13.40;98.30;;;;;;5225413;22;20470;-86
2021/10/02 01:37:26;;;;;;;4.00;3.57;;;13.50;98.30;;;;;;5225433;22;20528;-86
2021/10/02 01:49:02;;;;;;;4.80;3.90;;;13.50;98.30;;;;;;5215784;22;20468;-86
2021/10/02 01:51:05;;;;;;;5.50;4.07;;;13.60;98.30;;;;;;5224321;22;20517;-86
2021/10/02 01:53:11;;;;;;;6.23;4.40;;;13.60;98.30;;;;;;5224383;22;20427;-86
2021/10/02 01:55:16;;;;;;;5.03;4.20;;;13.60;98.30;;;;;;5224495;22;20465;-86
2021/10/02 01:57:20;;;;;;;5.40;4.53;;;13.60;98.30;;;;;;5223533;22;20421;-86
2021/10/02 01:59:27;;;;;;;8.33;4.60;;;13.60;98.30;;;;;;5224566;22;20429;-86
2021/10/02 02:01:31;;;;;;;6.77;5.00;;;13.60;98.30;;;;;;5223760;22;20514;-87
2021/10/02 02:03:40;;;;;;;7.20;5.00;;;13.60;98.30;;;;;;5224351;22;20758;-86
2021/10/02 02:05:44;;;;;;;5.47;4.40;;;13.60;98.30;;;;;;5224459;22;20457;-86
2021/10/02 02:07:52;;;;;;;5.17;4.67;;;13.60;98.30;;;;;;5224623;22;20428;-86
2021/10/02 02:09:59;;;;;;;5.40;4.50;;;13.70;98.30;;;;;;5225012;22;20519;-85
2021/10/02 02:12:02;;;;;;;7.53;4.83;;;13.60;98.30;;;;;;5225773;22;20432;-86
2021/10/02 02:14:07;;;;;;;5.47;4.43;;;13.60;98.30;;;;;;5225928;22;20429;-86
2021/10/02 02:16:13;;;;;;;8.73;4.40;;;13.60;98.30;;;;;;5226378;22;20445;-86
2021/10/02 02:18:18;;;;;;;6.73;5.27;;;13.50;98.30;;;;;;5225992;22;20441;-86
2021/10/02 02:20:29;;;;;;;6.17;5.00;;;13.50;98.30;;;;;;5226641;22;20446;-86
2021/10/02 02:22:33;;;;;;;6.57;5.33;;;13.50;98.30;;;;;;5225879;22;20453;-86
2021/10/02 02:24:36;;;;;;;10.13;5.97;;;13.50;98.30;;;;;;5226086;22;20513;-86
2021/10/02 02:26:40;;;;;;;9.27;4.90;;;13.50;98.30;;;;;;5226008;22;20442;-86
2021/10/02 02:28:43;;;;;;;8.73;5.87;;;13.50;98.30;;;;;;5226287;22;20422;-86
2021/10/02 02:30:48;;;;;;;6.03;5.30;;;13.40;98.30;;;;;;5226506;22;20795;-87
2021/10/02 02:32:55;;;;;;;8.77;5.20;;;13.40;98.30;;;;;;5225839;22;20905;-86
2021/10/02 02:34:58;;;;;;;9.53;5.90;;;13.40;98.30;;;;;;5226311;22;20425;-86
2021/10/02 02:37:02;;;;;;;6.40;5.53;;;13.40;98.30;;;;;;5226334;22;20449;-86
2021/10/02 02:39:05;;;;;;;10.37;5.43;;;13.50;98.30;;;;;;5231886;22;20438;-86
2021/10/02 02:41:09;;;;;;;7.70;6.10;;;13.50;98.30;;;;;;5246339;22;20440;-86
2021/10/02 02:43:12;;;;;;;7.10;5.00;;;13.50;98.30;;;;;;5247745;22;20444;-86
2021/10/02 02:45:16;;;;;;;7.00;5.40;;;13.50;98.30;;;;;;5247291;22;20438;-86
2021/10/02 02:47:24;;;;;;;6.50;5.10;;;13.50;98.30;;;;;;5242129;22;20422;-86
2021/10/02 02:49:38;;;;;;;6.10;5.50;;;13.50;98.30;;;;;;5226465;22;20471;-86
2021/10/02 02:51:56;;;;;;;9.20;7.07;;;13.50;98.30;;;;;;5225934;22;20426;-86
2021/10/02 02:54:08;;;;;;;9.10;6.03;;;13.50;98.30;;;;;;5226101;22;21013;-86
2021/10/02 02:56:16;;;;;;;7.33;5.77;;;13.50;98.30;;;;;;5225727;22;20544;-86
2021/10/02 02:58:20;;;;;;;8.67;5.87;;;13.50;98.30;;;;;;5225963;22;20437;-86
2021/10/02 03:00:25;;;;;;;6.27;5.30;;;13.50;98.30;;;;;;5225535;22;20468;-86
2021/10/02 03:02:30;;;;;;;8.63;6.00;;;13.50;98.30;;;;;;5230053;22;20532;-86
2021/10/02 03:04:38;;;;;;;9.63;5.83;;;13.50;98.30;;;;;;5238840;22;21539;-82
2021/10/02 15:06:16;;;;;;;6.23;4.57;;;16.10;98.30;;;;;;5212492;22;21188;-83
2021/10/02 15:08:42;;;;;;;5.20;4.20;;;15.90;98.30;;;;;;5242808;22;20441;-82
2021/10/02 15:10:51;;;;;;;4.90;4.10;;;15.90;98.30;;;;;;5251746;22;20450;-83
2021/10/02 16:27:33;;;;;;;6.97;4.70;;;15.60;98.30;;;;;;5146006;23;20455;-82
2021/10/02 16:29:38;;;;;;;5.53;4.97;;;15.50;98.30;;;;;;5152597;22;20429;-83
2021/10/02 16:31:44;;;;;;;5.40;4.87;;;15.50;98.30;;;;;;5252987;22;20421;-82
2021/10/02 16:37:07;;;;;;;5.40;4.90;;;15.60;98.30;;;;;;5180428;22;20420;-83
2021/10/02 16:39:27;;;;;;;5.60;4.80;;;15.50;98.30;;;;;;5253727;22;20447;-84
2021/10/02 16:41:36;;;;;;;6.20;5.60;;;15.40;98.30;;;;;;5252286;22;20482;-83
2021/10/02 16:43:47;;;;;;;7.10;5.73;;;15.50;98.30;;;;;;5251995;22;20420;-83
2021/10/02 16:45:53;;;;;;;6.70;5.20;;;15.40;98.30;;;;;;5252727;22;21039;-83
2021/10/02 16:47:59;;;;;;;10.13;6.50;;;15.40;98.30;;;;;;5252184;22;20527;-83
2021/10/02 16:50:02;;;;;;;5.97;5.37;;;15.40;98.30;;;;;;5253296;22;20927;-83
2021/10/02 16:52:08;;;;;;;9.00;5.10;;;15.40;98.30;;;;;;5252555;22;20909;-84
2021/10/02 16:54:11;;;;;;;5.77;5.20;;;15.40;98.30;;;;;;5252148;22;20413;-84
2021/10/02 16:56:17;;;;;;;6.17;5.50;;;15.30;98.30;;;;;;5252555;22;20440;-83
2021/10/02 16:58:27;;;;;;;5.67;5.17;;;15.40;98.30;;;;;;5252486;22;20419;-83
2021/10/02 17:00:32;;;;;;;6.10;5.50;;;15.40;98.30;;;;;;5253234;22;20424;-83
2021/10/02 17:02:38;;;;;;;8.50;5.27;;;15.40;98.30;;;;;;5252639;22;20424;-83
2021/10/02 17:04:43;;;;;;;6.10;5.27;;;15.40;98.30;;;;;;5253978;22;20753;-83
2021/10/02 17:06:46;;;;;;;6.50;5.17;;;15.30;98.30;;;;;;5253381;22;20809;-84
2021/10/02 17:08:49;;;;;;;6.73;5.50;;;15.30;98.30;;;;;;5253404;22;20425;-83
2021/10/02 17:10:56;;;;;;;6.27;5.67;;;15.30;98.30;;;;;;5252918;22;20444;-84
2021/10/02 17:13:03;;;;;;;8.33;5.30;;;15.30;98.30;;;;;;5243441;22;20432;-84
2021/10/02 17:15:08;;;;;;;8.23;6.13;;;15.20;98.30;;;;;;5253113;22;20758;-84
2021/10/02 17:17:13;;;;;;;5.80;5.17;;;15.30;98.30;;;;;;5254930;22;21016;-84
2021/10/02 17:19:16;;;;;;;9.00;5.67;;;15.20;98.30;;;;;;5256428;22;20424;-84
2021/10/02 17:21:22;;;;;;;6.13;5.23;;;15.30;98.30;;;;;;5253974;22;20421;-85
2021/10/02 17:23:25;;;;;;;5.70;5.10;;;15.20;98.30;;;;;;5255338;22;20420;-83
2021/10/02 17:25:34;;;;;;;6.23;5.50;;;15.20;98.30;;;;;;5254453;22;20844;-83
2021/10/02 17:27:37;;;;;;;7.07;5.37;;;15.20;98.30;;;;;;5254709;22;20418;-83
2021/10/02 17:29:43;;;;;;;7.83;5.73;;;15.10;98.30;;;;;;5247554;22;20516;-84
2021/10/02 17:31:47;;;;;;;6.57;5.40;;;15.10;98.30;;;;;;5259301;22;20492;-84
2021/10/02 17:33:51;;;;;;;6.00;5.40;;;15.10;98.30;;;;;;5261932;22;20421;-83
2021/10/02 17:35:55;;;;;;;6.60;5.63;;;15.20;98.30;;;;;;5261125;22;20487;-84
2021/10/02 17:37:58;;;;;;;6.20;5.60;;;15.10;98.30;;;;;;5259405;22;20425;-84
2021/10/02 17:40:01;;;;;;;6.67;5.80;;;15.10;98.30;;;;;;5259066;22;20787;-84
2021/10/02 17:42:05;;;;;;;6.60;5.43;;;15.10;98.30;;;;;;5259486;22;20806;-84
2021/10/02 17:44:08;;;;;;;6.03;5.43;;;15.10;98.30;;;;;;5259011;22;20449;-84
2021/10/02 17:46:11;;;;;;;9.17;5.47;;;15.10;98.30;;;;;;5259597;22;20886;-84
2021/10/02 17:48:14;;;;;;;6.97;5.50;;;15.10;98.30;;;;;;5260854;22;20428;-84
2021/10/02 17:50:19;;;;;;;5.50;4.83;;;15.10;98.30;;;;;;5260291;22;20420;-84
2021/10/02 17:52:22;;;;;;;5.50;5.00;;;15.10;98.30;;;;;;5259632;22;20421;-85
2021/10/02 17:54:25;;;;;;;5.77;5.20;;;15.10;98.30;;;;;;5251587;22;20425;-84
2021/10/02 17:56:31;;;;;;;5.63;4.63;;;15.00;98.30;;;;;;5262404;22;20471;-84
2021/10/02 17:58:34;;;;;;;7.10;5.60;;;15.10;98.30;;;;;;5259129;22;20813;-84
2021/10/02 18:00:39;;;;;;;6.17;5.60;;;15.10;98.30;;;;;;5258625;22;20496;-84
2021/10/02 18:02:43;;;;;;;5.83;5.20;;;15.10;98.30;;;;;;5258265;22;20416;-84
2021/10/02 18:04:46;;;;;;;7.00;5.57;;;15.00;98.30;;;;;;5258777;22;20446;-85
2021/10/02 18:06:51;;;;;;;8.87;6.13;;;15.10;98.30;;;;;;5259777;22;20432;-84
2021/10/02 18:08:56;;;;;;;5.77;5.20;;;15.10;98.30;;;;;;5260672;22;20397;-84
2021/10/02 18:10:59;;;;;;;7.83;5.40;;;15.10;98.30;;;;;;5260611;22;20416;-84
2021/10/02 18:13:02;;;;;;;8.33;5.13;;;15.10;98.30;;;;;;5260463;22;20543;-84
2021/10/02 18:15:07;;;;;;;6.17;5.57;;;15.10;98.30;;;;;;5260689;22;20512;-83
2021/10/02 18:17:10;;;;;;;5.47;4.97;;;15.10;98.30;;;;;;5260700;22;20436;-83
2021/10/02 18:19:14;;;;;;;5.90;4.97;;;15.10;98.30;;;;;;5259564;22;20924;-84
2021/10/02 18:21:17;;;;;;;6.73;5.07;;;15.10;98.30;;;;;;5256608;22;20447;-84
2021/10/02 18:23:22;;;;;;;6.93;5.27;;;15.10;98.30;;;;;;5254416;22;20515;-83
2021/10/02 18:25:29;;;;;;;5.80;5.20;;;15.10;98.30;;;;;;5254474;22;20460;-83
2021/10/02 18:27:35;;;;;;;5.73;5.23;;;15.10;98.30;;;;;;5254396;22;20971;-84
2021/10/02 18:29:39;;;;;;;6.60;4.80;;;15.10;98.30;;;;;;5254746;22;20500;-83
2021/10/02 18:31:42;;;;;;;6.43;5.37;;;15.10;98.30;;;;;;5254506;22;20768;-84
2021/10/02 18:33:45;;;;;;;5.40;4.90;;;15.10;98.30;;;;;;5253774;22;20455;-84
2021/10/02 18:35:49;;;;;;;5.63;5.13;;;15.20;98.30;;;;;;5254056;22;20444;-83
2021/10/02 18:37:52;;;;;;;5.07;4.57;;;15.20;98.30;;;;;;5255292;22;20452;-84
2021/10/02 18:39:57;;;;;;;6.00;5.40;;;15.10;98.30;;;;;;5247325;22;20822;-83
2021/10/02 18:42:01;;;;;;;7.23;5.10;;;15.10;98.30;;;;;;5255831;22;20720;-84
2021/10/02 18:44:09;;;;;;;5.13;4.63;;;15.10;98.30;;;;;;5256602;22;20477;-84
2021/10/02 18:46:12;;;;;;;5.27;4.77;;;15.10;98.30;;;;;;5255876;22;20447;-83
2021/10/02 18:48:15;;;;;;;5.60;5.10;;;15.10;98.30;;;;;;5255783;22;20421;-83
2021/10/02 18:50:19;;;;;;;6.77;5.03;;;15.10;98.30;;;;;;5255626;22;20764;-83
2021/10/02 18:52:22;;;;;;;5.97;5.47;;;15.10;98.30;;;;;;5257058;22;20440;-84
2021/10/02 18:54:27;;;;;;;5.03;4.50;;;15.10;98.30;;;;;;5258215;22;20758;-84
2021/10/02 18:56:31;;;;;;;5.47;4.83;;;15.10;98.30;;;;;;5258521;22;20833;-84
2021/10/02 18:58:35;;;;;;;5.13;4.70;;;15.10;98.30;;;;;;5268358;22;20431;-84
2021/10/02 19:00:39;;;;;;;6.20;5.17;;;15.10;98.30;;;;;;5270924;22;20468;-84
2021/10/02 19:02:43;;;;;;;5.73;4.80;;;15.10;98.30;;;;;;5271319;22;20444;-84
2021/10/02 19:04:47;;;;;;;7.87;5.00;;;15.10;98.30;;;;;;5265172;22;20750;-84
2021/10/02 19:06:53;;;;;;;6.03;4.80;;;15.10;98.30;;;;;;5258443;22;20756;-84
2021/10/02 19:08:56;;;;;;;4.73;4.30;;;15.20;98.30;;;;;;5257834;22;20452;-84
2021/10/02 19:10:59;;;;;;;5.20;4.70;;;15.20;98.30;;;;;;5248974;22;20458;-84
2021/10/02 19:13:06;;;;;;;4.10;3.70;;;15.20;98.30;;;;;;5257097;22;20444;-84
2021/10/02 19:15:12;;;;;;;7.77;5.10;;;15.20;98.30;;;;;;5258122;22;20717;-84
2021/10/02 19:17:15;;;;;;;5.30;4.47;;;15.20;98.30;;;;;;5258348;22;20492;-84
2021/10/02 19:19:18;;;;;;;5.03;4.57;;;15.20;98.30;;;;;;5258297;22;21000;-85
2021/10/02 19:21:21;;;;;;;4.63;4.13;;;15.30;98.30;;;;;;5270408;22;20463;-85
2021/10/02 19:23:44;;;;;;;4.80;4.40;;;15.30;98.30;;;;;;5256959;22;20413;-84
2021/10/02 19:25:48;;;;;;;5.00;4.50;;;15.30;98.30;;;;;;5258746;22;20561;-84
2021/10/02 19:27:51;;;;;;;5.90;4.53;;;15.20;98.30;;;;;;5259357;22;20499;-84
2021/10/02 19:29:56;;;;;;;4.83;3.80;;;15.20;98.30;;;;;;5266313;22;20428;-85
2021/10/02 19:31:59;;;;;;;4.33;3.93;;;15.20;98.30;;;;;;5270700;22;20501;-84
2021/10/02 19:34:02;;;;;;;4.80;4.27;;;15.20;98.30;;;;;;5269075;22;20500;-84
2021/10/02 19:36:05;;;;;;;6.50;4.70;;;15.30;98.30;;;;;;5259587;22;20448;-84
2021/10/02 19:38:08;;;;;;;6.33;4.47;;;15.30;98.30;;;;;;5261552;22;20432;-84
2021/10/02 19:40:11;;;;;;;4.60;4.00;;;15.30;98.30;;;;;;5255260;22;20452;-84
2021/10/02 19:42:16;;;;;;;4.87;4.20;;;15.20;98.30;;;;;;5255680;22;20536;-84
2021/10/02 19:44:19;;;;;;;5.13;4.63;;;15.20;98.30;;;;;;5256266;22;20525;-84
2021/10/02 19:46:26;;;;;;;4.70;4.20;;;15.30;98.30;;;;;;5256875;22;20470;-84
2021/10/02 19:48:29;;;;;;;4.37;3.97;;;15.30;98.30;;;;;;5256268;22;20405;-84
2021/10/02 19:50:33;;;;;;;4.23;3.90;;;15.30;98.30;;;;;;5255799;22;20489;-85
2021/10/02 19:52:36;;;;;;;4.40;4.00;;;15.30;98.30;;;;;;5254950;22;20417;-85
2021/10/02 19:54:40;;;;;;;5.90;4.13;;;15.30;98.30;;;;;;5253779;22;20428;-83
2021/10/02 19:56:43;;;;;;;4.37;3.97;;;15.30;98.30;;;;;;5254177;22;20421;-84
2021/10/02 19:58:48;;;;;;;6.30;4.33;;;15.30;98.30;;;;;;5254457;22;20423;-85
2021/10/02 20:00:51;;;;;;;4.00;3.70;;;15.30;98.30;;;;;;5254199;22;20421;-84
2021/10/02 20:02:56;;;;;;;5.43;3.83;;;15.30;98.30;;;;;;5253322;22;20474;-84
2021/10/02 20:04:59;;;;;;;4.80;4.30;;;15.30;98.30;;;;;;5253750;22;20913;-84
2021/10/02 20:07:02;;;;;;;4.63;4.10;;;15.30;98.30;;;;;;5253957;22;20503;-84
2021/10/02 20:09:06;;;;;;;4.23;3.57;;;15.40;98.30;;;;;;5253398;22;20492;-83
2021/10/02 20:11:09;;;;;;;4.30;3.90;;;15.30;98.30;;;;;;5253370;22;20449;-84
2021/10/02 20:13:12;;;;;;;4.80;3.97;;;15.40;98.30;;;;;;5253416;22;20508;-83
2021/10/02 20:15:15;;;;;;;4.00;3.60;;;15.40;98.30;;;;;;5256581;22;20452;-84
2021/10/02 20:17:21;;;;;;;4.10;3.70;;;15.40;98.30;;;;;;5256564;22;20831;-84
2021/10/02 20:19:26;;;;;;;5.83;4.53;;;15.40;98.30;;;;;;5255402;22;20444;-84
2021/10/02 20:21:29;;;;;;;4.80;4.10;;;15.40;98.30;;;;;;5254223;22;20433;-84
2021/10/02 20:23:33;;;;;;;3.93;3.50;;;15.40;98.30;;;;;;5253511;22;20448;-84
2021/10/02 20:25:46;;;;;;;5.10;4.53;;;15.50;98.30;;;;;;5253464;22;20797;-83
2021/10/02 20:27:49;;;;;;;4.90;3.93;;;15.50;98.30;;;;;;5254182;22;20742;-84
2021/10/02 20:29:52;;;;;;;3.87;3.50;;;15.50;98.30;;;;;;5255975;22;20428;-84
2021/10/02 20:31:55;;;;;;;4.33;3.80;;;15.60;98.30;;;;;;5254934;22;20803;-84
2021/10/02 20:34:00;;;;;;;4.00;3.60;;;15.60;98.30;;;;;;5254143;22;20429;-85
2021/10/02 20:36:05;;;;;;;5.80;3.40;;;15.60;98.30;;;;;;5254124;22;20468;-84
2021/10/02 20:38:08;;;;;;;3.93;3.50;;;15.60;98.30;;;;;;5255710;22;20424;-84
2021/10/02 20:40:13;;;;;;;3.70;3.40;;;15.60;98.30;;;;;;5255982;22;20509;-84
2021/10/02 20:42:16;;;;;;;4.07;3.67;;;15.60;98.30;;;;;;5255720;22;20517;-84
2021/10/02 20:44:20;;;;;;;3.80;3.37;;;15.60;98.30;;;;;;5255919;22;20499;-84
2021/10/02 20:46:23;;;;;;;3.87;3.47;;;15.70;98.30;;;;;;5255616;22;20762;-84
2021/10/02 20:48:26;;;;;;;3.90;3.60;;;15.70;98.30;;;;;;5254099;22;20553;-84
2021/10/02 20:50:30;;;;;;;4.20;3.80;;;15.60;98.30;;;;;;5253589;22;20424;-84
2021/10/02 20:52:34;;;;;;;8.20;3.80;;;15.70;98.30;;;;;;5252914;22;20423;-84
2021/10/02 20:54:38;;;;;;;5.30;3.60;;;15.60;98.30;;;;;;5253354;22;20420;-84
2021/10/02 20:56:41;;;;;;;4.10;3.70;;;15.60;98.30;;;;;;5253197;22;20447;-84
2021/10/02 20:58:44;;;;;;;3.73;3.43;;;15.70;98.30;;;;;;5254113;22;20417;-83
2021/10/02 21:00:48;;;;;;;5.03;4.00;;;15.70;98.30;;;;;;5255565;22;20449;-84
2021/10/02 21:02:54;;;;;;;4.27;3.87;;;15.70;98.30;;;;;;5255828;22;20444;-83
2021/10/02 21:16:26;;;;;;;4.80;3.40;;;15.80;98.30;;;;;;5201187;22;20535;-83
